createdAt,value
2019-04-29T00:01:35.917Z,4.83
2019-04-29T00:04:05.261Z,5.55
2019-04-29T00:06:34.391Z,5.33
2019-04-29T00:09:06.874Z,4.28
2019-04-29T00:11:37.744Z,4.90
2019-04-29T00:14:07.737Z,4.03
2019-04-29T00:16:47.725Z,4.28
2019-04-29T00:19:36.272Z,5.97
2019-04-29T00:22:05.871Z,5.42
2019-04-29T00:24:35.187Z,4.08
2019-04-29T00:27:04.481Z,5.55
2019-04-29T00:29:33.726Z,4.67
2019-04-29T00:32:03.010Z,5.58
2019-04-29T00:34:32.321Z,5.62
2019-04-29T00:37:03.192Z,6.72
2019-04-29T00:39:50.479Z,5.15
2019-04-29T00:42:21.354Z,7.17
2019-04-29T00:44:51.687Z,5.10
2019-04-29T00:47:21.204Z,6.35
2019-04-29T00:49:50.377Z,5.40
2019-04-29T00:52:19.797Z,5.47
2019-04-29T00:54:50.829Z,5.65
2019-04-29T00:57:20.331Z,6.95
2019-04-29T00:59:49.483Z,6.42
2019-04-29T01:02:18.709Z,6.12
2019-04-29T01:04:47.959Z,6.97
2019-04-29T01:07:17.181Z,5.87
2019-04-29T01:09:46.308Z,7.83
2019-04-29T01:12:15.460Z,7.53
2019-04-29T01:14:44.597Z,7.08
2019-04-29T01:17:13.740Z,6.87
2019-04-29T01:19:42.971Z,6.30
2019-04-29T01:22:12.221Z,8.38
2019-04-29T01:24:41.365Z,8.03
2019-04-29T01:27:12.172Z,7.35
2019-04-29T01:29:41.307Z,9.43
2019-04-29T01:32:10.550Z,9.83
2019-04-29T01:34:53.654Z,7.65
2019-04-29T01:37:24.463Z,7.03
2019-04-29T01:39:55.254Z,11.22
2019-04-29T01:42:26.043Z,7.33
2019-04-29T01:44:55.447Z,9.30
2019-04-29T01:47:25.720Z,6.55
2019-04-29T01:49:54.870Z,7.45
2019-04-29T01:52:24.084Z,8.73
2019-04-29T01:54:53.387Z,9.28
2019-04-29T01:57:22.676Z,7.85
2019-04-29T01:59:51.827Z,7.90
2019-04-29T02:02:20.970Z,6.83
2019-04-29T02:04:50.126Z,10.85
2019-04-29T02:07:19.456Z,10.98
2019-04-29T02:09:53.248Z,7.75
2019-04-29T02:12:22.452Z,9.70
2019-04-29T02:14:51.972Z,7.22
2019-04-29T02:17:21.132Z,7.75
2019-04-29T02:19:50.264Z,8.58
2019-04-29T02:22:33.485Z,9.98
2019-04-29T02:27:32.808Z,10.75
2019-04-29T02:30:02.024Z,7.85
2019-04-29T02:32:32.443Z,8.83
2019-04-29T02:35:01.679Z,11.35
2019-04-29T02:37:32.628Z,8.43
2019-04-29T02:40:06.416Z,10.15
2019-04-29T02:42:49.028Z,8.68
2019-04-29T02:45:19.904Z,9.68
2019-04-29T02:47:49.140Z,9.38
2019-04-29T02:50:18.972Z,8.73
2019-04-29T02:52:48.131Z,11.85
2019-04-29T02:55:18.969Z,7.92
2019-04-29T02:58:01.790Z,9.08
2019-04-29T03:00:32.610Z,8.00
2019-04-29T03:03:06.138Z,9.95
2019-04-29T03:05:40.104Z,24.18
2019-04-29T03:08:09.332Z,8.40
2019-04-29T03:10:38.517Z,9.43
2019-04-29T03:13:07.744Z,10.48
2019-04-29T03:15:37.151Z,8.95
2019-04-29T03:18:06.371Z,9.20
2019-04-29T03:20:45.892Z,9.20
2019-04-29T03:23:19.442Z,10.53
2019-04-29T03:25:48.604Z,11.20
2019-04-29T03:28:17.815Z,9.78
2019-04-29T03:30:46.964Z,12.23
2019-04-29T03:33:16.176Z,9.83
2019-04-29T03:35:45.404Z,11.05
2019-04-29T03:38:14.710Z,11.40
2019-04-29T03:40:43.845Z,11.08
2019-04-29T03:43:13.032Z,11.35
2019-04-29T03:45:42.260Z,10.60
2019-04-29T03:48:11.465Z,11.68
2019-04-29T03:50:40.636Z,11.05
2019-04-29T03:53:09.937Z,9.70
2019-04-29T03:55:40.683Z,10.93
2019-04-29T03:58:10.051Z,10.50
2019-04-29T04:00:44.115Z,14.45
2019-04-29T04:03:13.782Z,10.18
2019-04-29T04:05:51.541Z,13.38
2019-04-29T04:08:22.334Z,12.23
2019-04-29T04:10:51.492Z,12.85
2019-04-29T04:13:20.705Z,11.12
2019-04-29T04:15:49.930Z,11.33
2019-04-29T04:18:23.562Z,12.18
2019-04-29T04:20:52.713Z,14.33
2019-04-29T04:23:21.836Z,11.03
2019-04-29T04:25:50.993Z,13.50
2019-04-29T04:28:20.159Z,12.68
2019-04-29T04:30:49.306Z,12.00
2019-04-29T04:33:18.497Z,11.33
2019-04-29T04:35:47.671Z,12.63
2019-04-29T04:38:17.200Z,15.78
2019-04-29T04:40:59.916Z,13.20
2019-04-29T04:43:30.170Z,13.13
2019-04-29T04:46:00.448Z,13.45
2019-04-29T04:48:29.689Z,13.83
2019-04-29T04:50:58.849Z,14.25
2019-04-29T04:53:28.051Z,14.10
2019-04-29T04:55:58.860Z,13.03
2019-04-29T04:58:28.052Z,10.95
2019-04-29T05:00:57.198Z,10.95
2019-04-29T05:03:26.353Z,12.33
2019-04-29T05:05:55.504Z,8.85
2019-04-29T05:08:24.728Z,11.38
2019-04-29T05:10:53.872Z,11.43
2019-04-29T05:13:28.499Z,10.35
2019-04-29T05:15:53.880Z,14.05
2019-04-29T05:18:23.064Z,16.25
2019-04-29T05:20:52.252Z,10.72
2019-04-29T05:23:21.480Z,13.50
2019-04-29T05:25:50.646Z,12.40
2019-04-29T05:28:19.900Z,13.03
2019-04-29T05:30:49.208Z,14.20
2019-04-29T05:33:18.392Z,13.40
2019-04-29T05:35:49.217Z,10.23
2019-04-29T05:38:20.085Z,12.68
2019-04-29T05:40:50.892Z,13.80
2019-04-29T05:43:21.679Z,12.90
2019-04-29T05:46:01.732Z,12.53
2019-04-29T05:48:32.009Z,15.80
2019-04-29T05:51:22.701Z,16.45
2019-04-29T05:53:55.931Z,19.52
2019-04-29T05:56:25.475Z,13.28
2019-04-29T05:58:54.624Z,19.60
2019-04-29T06:01:25.424Z,11.57
2019-04-29T06:03:54.661Z,14.33
2019-04-29T06:06:23.929Z,12.30
2019-04-29T06:08:53.093Z,14.38
2019-04-29T06:11:23.383Z,10.88
2019-04-29T06:13:52.837Z,13.50
2019-04-29T06:16:22.722Z,12.47
2019-04-29T06:18:59.385Z,16.35
2019-04-29T06:21:22.851Z,13.15
2019-04-29T06:23:54.586Z,16.87
2019-04-29T06:26:22.917Z,13.65
2019-04-29T06:28:52.057Z,15.55
2019-04-29T06:31:21.217Z,13.32
2019-04-29T06:33:50.381Z,15.48
2019-04-29T06:36:19.656Z,14.07
2019-04-29T06:38:48.943Z,16.67
2019-04-29T06:41:18.088Z,14.03
2019-04-29T06:43:47.259Z,15.80
2019-04-29T06:46:16.419Z,10.20
2019-04-29T06:48:45.659Z,18.07
2019-04-29T06:51:14.816Z,14.47
2019-04-29T06:53:43.953Z,11.80
2019-04-29T06:56:13.121Z,17.02
2019-04-29T06:58:42.573Z,15.18
2019-04-29T07:01:11.741Z,16.25
2019-04-29T07:03:40.900Z,13.48
2019-04-29T07:06:10.109Z,12.75
2019-04-29T07:08:39.343Z,12.63
2019-04-29T07:11:08.519Z,12.07
2019-04-29T07:13:37.716Z,16.25
2019-04-29T07:16:06.901Z,14.15
2019-04-29T07:18:40.346Z,12.15
2019-04-29T07:21:07.607Z,13.58
2019-04-29T07:23:37.796Z,16.82
2019-04-29T07:26:06.959Z,15.90
2019-04-29T07:28:36.113Z,14.05
2019-04-29T07:31:05.241Z,15.32
2019-04-29T07:33:34.452Z,15.15
2019-04-29T07:36:10.700Z,17.12
2019-04-29T07:38:41.342Z,14.80
2019-04-29T07:41:05.302Z,19.80
2019-04-29T07:43:34.448Z,19.05
2019-04-29T07:46:17.335Z,14.13
2019-04-29T07:49:00.492Z,16.75
2019-04-29T07:51:17.329Z,19.12
2019-04-29T07:53:46.504Z,19.65
2019-04-29T07:56:15.658Z,13.78
2019-04-29T07:58:44.812Z,14.90
2019-04-29T08:01:13.986Z,18.37
2019-04-29T08:03:43.147Z,16.73
2019-04-29T08:06:13.386Z,17.10
2019-04-29T08:08:54.306Z,18.40
2019-04-29T08:11:13.607Z,16.17
2019-04-29T08:13:43.667Z,14.38
2019-04-29T08:16:16.707Z,14.83
2019-04-29T08:18:43.790Z,21.57
2019-04-29T08:21:14.316Z,16.60
2019-04-29T08:23:43.934Z,16.55
2019-04-29T08:26:13.086Z,14.18
2019-04-29T08:28:42.310Z,17.98
2019-04-29T08:31:11.484Z,14.83
2019-04-29T08:33:42.460Z,29.63
2019-04-29T08:36:11.671Z,13.78
2019-04-29T08:38:40.839Z,19.80
2019-04-29T08:41:10.298Z,17.60
2019-04-29T08:43:52.494Z,16.93
2019-04-29T08:46:25.410Z,15.03
2019-04-29T08:48:54.703Z,19.00
2019-04-29T08:51:23.895Z,17.52
2019-04-29T08:53:53.077Z,18.48
2019-04-29T08:56:22.238Z,18.07
2019-04-29T08:58:51.404Z,13.88
2019-04-29T09:01:20.633Z,15.98
2019-04-29T09:03:53.699Z,18.87
2019-04-29T09:06:20.645Z,18.80
2019-04-29T09:08:55.243Z,17.87
2019-04-29T09:11:20.807Z,16.52
2019-04-29T09:13:49.964Z,17.42
2019-04-29T09:16:19.165Z,16.50
2019-04-29T09:18:48.513Z,18.67
2019-04-29T09:21:17.686Z,18.27
2019-04-29T09:23:46.882Z,17.87
2019-04-29T09:26:20.493Z,17.23
2019-04-29T09:28:50.044Z,18.75
2019-04-29T09:31:19.505Z,14.38
2019-04-29T09:33:50.811Z,17.52
2019-04-29T09:36:19.575Z,16.25
2019-04-29T09:38:48.920Z,21.42
2019-04-29T09:41:25.623Z,17.65
2019-04-29T09:44:05.606Z,19.57
2019-04-29T09:46:36.719Z,17.48
2019-04-29T09:49:05.901Z,19.45
2019-04-29T09:51:35.049Z,20.75
2019-04-29T09:54:04.302Z,18.98
2019-04-29T09:56:34.855Z,21.20
2019-04-29T09:59:22.884Z,19.80
2019-04-29T10:02:10.559Z,19.85
2019-04-29T10:04:56.521Z,24.82
2019-04-29T10:07:18.599Z,20.60
2019-04-29T10:09:56.919Z,21.90
2019-04-29T10:12:20.376Z,22.25
2019-04-29T10:14:49.657Z,18.00
2019-04-29T10:17:20.461Z,19.60
2019-04-29T10:20:08.283Z,19.85
2019-04-29T10:22:37.873Z,16.65
2019-04-29T10:25:08.525Z,16.65
2019-04-29T10:27:38.404Z,17.23
2019-04-29T10:30:08.141Z,14.35
2019-04-29T10:32:42.423Z,16.85
2019-04-29T10:35:10.724Z,14.47
2019-04-29T10:37:40.202Z,14.20
2019-04-29T10:40:27.531Z,16.15
2019-04-29T10:43:11.430Z,17.27
2019-04-29T10:45:45.925Z,15.75
2019-04-29T10:48:22.514Z,18.55
2019-04-29T10:50:53.907Z,19.40
2019-04-29T10:53:24.231Z,20.15
2019-04-29T10:55:53.672Z,18.77
2019-04-29T10:58:29.842Z,18.50
2019-04-29T11:01:02.654Z,19.40
2019-04-29T11:03:32.169Z,18.75
2019-04-29T11:06:02.070Z,19.65
2019-04-29T11:08:49.104Z,19.37
2019-04-29T11:11:23.217Z,16.73
2019-04-29T11:13:50.588Z,19.42
2019-04-29T11:16:23.015Z,20.10
2019-04-29T11:18:54.976Z,16.25
2019-04-29T11:21:25.029Z,19.45
2019-04-29T11:23:56.519Z,19.77
2019-04-29T11:26:27.498Z,18.92
2019-04-29T11:28:58.494Z,15.78
2019-04-29T11:31:27.859Z,15.40
2019-04-29T11:34:05.658Z,18.10
2019-04-29T11:36:38.988Z,17.82
2019-04-29T11:39:09.107Z,19.37
2019-04-29T11:41:38.448Z,21.15
2019-04-29T11:44:07.729Z,15.78
2019-04-29T11:46:36.987Z,15.53
2019-04-29T11:49:06.935Z,14.93
2019-04-29T11:51:48.623Z,15.03
2019-04-29T11:54:12.385Z,14.90
2019-04-29T11:56:39.918Z,16.30
2019-04-29T11:59:19.828Z,15.98
2019-04-29T12:01:53.600Z,18.15
2019-04-29T12:04:28.585Z,12.78
2019-04-29T12:06:56.390Z,14.28
2019-04-29T12:09:30.601Z,11.48
2019-04-29T12:11:57.425Z,10.88
2019-04-29T12:14:33.698Z,11.57
2019-04-29T12:17:09.503Z,9.08
2019-04-29T12:19:40.389Z,11.55
2019-04-29T12:22:15.116Z,9.55
2019-04-29T12:24:40.567Z,13.60
2019-04-29T12:27:10.039Z,10.85
2019-04-29T12:29:39.307Z,10.53
2019-04-29T12:32:13.085Z,11.00
2019-04-29T12:34:43.974Z,11.80
2019-04-29T12:37:14.815Z,9.90
2019-04-29T12:39:45.641Z,12.28
2019-04-29T12:42:25.551Z,9.03
2019-04-29T12:44:56.355Z,11.10
2019-04-29T12:47:30.245Z,9.33
2019-04-29T12:49:59.459Z,11.45
2019-04-29T12:52:28.715Z,9.50
2019-04-29T12:55:00.936Z,14.55
2019-04-29T12:57:28.860Z,16.02
2019-04-29T12:59:59.123Z,15.85
2019-04-29T13:02:39.387Z,10.75
2019-04-29T13:05:10.223Z,12.55
2019-04-29T13:07:43.593Z,12.47
2019-04-29T13:10:17.139Z,15.60
2019-04-29T13:12:46.384Z,17.80
2019-04-29T13:15:17.183Z,12.90
2019-04-29T13:18:03.300Z,15.95
2019-04-29T13:20:25.107Z,11.05
2019-04-29T13:22:54.271Z,13.93
2019-04-29T13:25:26.594Z,13.15
2019-04-29T13:27:56.132Z,15.65
2019-04-29T13:30:25.201Z,16.55
2019-04-29T13:32:54.417Z,17.20
2019-04-29T13:35:23.637Z,11.68
2019-04-29T13:37:52.783Z,14.15
2019-04-29T13:40:23.035Z,11.33
2019-04-29T13:42:52.199Z,11.70
2019-04-29T13:45:29.030Z,15.13
2019-04-29T13:48:11.821Z,13.25
2019-04-29T13:51:00.117Z,13.45
2019-04-29T13:53:29.334Z,10.68
2019-04-29T13:56:11.211Z,12.23
2019-04-29T13:58:29.474Z,11.40
2019-04-29T14:01:01.901Z,12.93
2019-04-29T14:03:42.090Z,13.88
2019-04-29T14:06:10.210Z,13.40
2019-04-29T14:08:39.595Z,10.82
2019-04-29T14:11:08.855Z,12.53
2019-04-29T14:13:39.010Z,13.08
2019-04-29T14:16:11.995Z,12.78
2019-04-29T14:18:43.597Z,10.23
2019-04-29T14:21:12.041Z,12.80
2019-04-29T14:23:41.386Z,11.33
2019-04-29T14:26:10.551Z,10.48
2019-04-29T14:28:39.818Z,10.68
2019-04-29T14:31:08.993Z,11.03
2019-04-29T14:33:39.832Z,8.88
2019-04-29T14:36:10.032Z,10.50
2019-04-29T14:38:40.568Z,9.93
2019-04-29T14:41:14.328Z,11.20
2019-04-29T14:43:50.566Z,13.05
2019-04-29T14:46:29.949Z,10.90
2019-04-29T14:49:09.946Z,10.90
2019-04-29T14:51:39.132Z,10.23
2019-04-29T14:54:08.332Z,14.50
2019-04-29T14:56:37.496Z,11.03
2019-04-29T14:59:07.661Z,12.23
2019-04-29T15:01:38.705Z,10.82
2019-04-29T15:04:17.810Z,10.28
2019-04-29T15:06:40.631Z,12.75
2019-04-29T15:09:16.589Z,11.57
2019-04-29T15:18:45.035Z,15.65
2019-04-29T15:21:15.652Z,10.98
2019-04-29T15:23:44.838Z,13.78
2019-04-29T15:26:13.999Z,12.28
2019-04-29T15:28:52.303Z,13.35
2019-04-29T15:31:22.149Z,13.38
2019-04-29T15:33:51.355Z,13.58
2019-04-29T15:36:20.533Z,13.62
2019-04-29T15:39:07.980Z,13.62
2019-04-29T15:41:20.638Z,18.23
2019-04-29T15:43:50.095Z,13.05
2019-04-29T15:46:19.407Z,12.20
2019-04-29T15:48:48.550Z,12.55
2019-04-29T15:51:17.697Z,10.38
2019-04-29T15:53:46.888Z,14.93
2019-04-29T15:56:28.369Z,12.20
2019-04-29T15:58:47.260Z,14.63
2019-04-29T16:01:18.184Z,12.13
2019-04-29T16:03:50.010Z,13.08
2019-04-29T16:06:22.960Z,13.25
2019-04-29T16:08:58.686Z,12.50
2019-04-29T16:11:42.922Z,13.95
2019-04-29T16:14:16.730Z,13.85
2019-04-29T16:16:45.866Z,18.82
2019-04-29T16:19:15.012Z,14.38
2019-04-29T16:21:44.363Z,14.07
2019-04-29T16:24:25.828Z,14.30
2019-04-29T16:26:44.509Z,13.13
2019-04-29T16:29:15.380Z,15.95
2019-04-29T16:31:44.646Z,15.85
2019-04-29T16:34:13.828Z,14.50
2019-04-29T16:36:43.630Z,15.03
2019-04-29T16:39:13.903Z,13.60
2019-04-29T16:41:44.879Z,14.38
2019-04-29T16:44:34.116Z,17.40
2019-04-29T16:46:46.704Z,19.92
2019-04-29T16:49:16.101Z,24.20
2019-04-29T16:51:47.957Z,18.00
2019-04-29T16:54:20.477Z,23.25
2019-04-29T16:56:46.974Z,22.02
2019-04-29T16:59:16.143Z,20.92
2019-04-29T17:01:45.291Z,23.22
2019-04-29T17:04:14.479Z,18.60
2019-04-29T17:07:10.784Z,24.15
2019-04-29T17:09:34.252Z,20.72
2019-04-29T17:12:05.538Z,17.77
2019-04-29T17:15:01.193Z,18.98
2019-04-29T17:17:07.338Z,19.15
2019-04-29T17:19:36.519Z,23.67
2019-04-29T17:22:24.771Z,23.90
2019-04-29T17:24:39.393Z,23.62
2019-04-29T17:27:10.258Z,21.35
2019-04-29T17:29:49.165Z,18.65
2019-04-29T17:32:20.062Z,21.23
2019-04-29T17:34:58.745Z,21.20
2019-04-29T17:37:21.703Z,21.30
2019-04-29T17:39:50.956Z,21.85
2019-04-29T17:42:20.354Z,22.32
2019-04-29T17:44:49.510Z,21.35
2019-04-29T17:47:26.088Z,23.52
2019-04-29T17:49:56.865Z,25.88
2019-04-29T17:52:27.708Z,27.75
2019-04-29T17:55:01.566Z,24.90
2019-04-29T17:57:37.099Z,23.92
2019-04-29T18:00:09.566Z,26.02
2019-04-29T18:02:45.480Z,22.25
2019-04-29T18:05:16.875Z,24.25
2019-04-29T18:07:55.380Z,23.73
2019-04-29T18:10:29.661Z,21.57
2019-04-29T18:12:59.137Z,20.15
2019-04-29T18:15:41.911Z,22.62
2019-04-29T18:18:05.374Z,20.62
2019-04-29T18:20:37.006Z,25.82
2019-04-29T18:23:11.200Z,21.45
2019-04-29T18:25:40.390Z,21.27
2019-04-29T18:28:09.955Z,24.15
2019-04-29T18:30:40.360Z,25.20
2019-04-29T18:33:09.562Z,26.35
2019-04-29T18:35:38.825Z,21.27
2019-04-29T18:38:11.911Z,25.55
2019-04-29T18:40:42.122Z,25.43
2019-04-29T18:43:09.822Z,22.93
2019-04-29T18:45:39.050Z,24.95
2019-04-29T18:48:14.407Z,22.42
2019-04-29T18:50:39.229Z,23.30
2019-04-29T18:53:08.393Z,22.42
2019-04-29T18:55:37.573Z,22.37
2019-04-29T18:58:06.733Z,22.67
2019-04-29T19:00:35.908Z,19.75
2019-04-29T19:03:06.613Z,19.48
2019-04-29T19:05:45.300Z,20.92
2019-04-29T19:08:19.127Z,19.73
2019-04-29T19:10:49.919Z,22.40
2019-04-29T19:13:16.809Z,22.25
2019-04-29T19:15:48.396Z,21.87
2019-04-29T19:18:20.897Z,21.87
2019-04-29T19:20:52.831Z,21.87
2019-04-29T19:23:22.370Z,22.30
2019-04-29T19:25:50.933Z,19.27
2019-04-29T19:28:29.629Z,22.87
2019-04-29T19:30:51.004Z,21.05
2019-04-29T19:33:20.269Z,21.20
2019-04-29T19:35:49.522Z,19.40
2019-04-29T19:38:19.738Z,20.10
2019-04-29T19:40:49.028Z,16.90
2019-04-29T19:43:18.993Z,19.50
2019-04-29T19:45:50.406Z,20.37
2019-04-29T19:48:22.414Z,22.07
2019-04-29T19:51:13.508Z,19.85
2019-04-29T19:53:25.081Z,20.57
2019-04-29T19:56:02.216Z,21.27
2019-04-29T19:58:29.621Z,19.40
2019-04-29T20:01:10.261Z,21.17
2019-04-29T20:03:35.868Z,22.77
2019-04-29T20:06:08.445Z,22.60
2019-04-29T20:08:52.655Z,19.90
2019-04-29T20:11:12.379Z,18.95
2019-04-29T20:13:34.452Z,22.25
2019-04-29T20:16:12.651Z,20.02
2019-04-29T20:18:58.341Z,23.22
2019-04-29T20:21:24.823Z,22.15
2019-04-29T20:23:52.649Z,23.10
2019-04-29T20:26:28.513Z,21.93
2019-04-29T20:28:50.938Z,28.87
2019-04-29T20:31:22.399Z,23.65
2019-04-29T20:33:51.593Z,26.52
2019-04-29T20:36:33.228Z,26.33
2019-04-29T20:38:51.820Z,22.87
2019-04-29T20:41:39.361Z,23.02
2019-04-29T20:43:52.149Z,22.90
2019-04-29T20:46:21.810Z,24.75
2019-04-29T20:48:55.804Z,22.42
2019-04-29T20:51:27.417Z,24.27
2019-04-29T20:53:56.097Z,23.92
2019-04-29T20:56:29.889Z,20.92
2019-04-29T20:58:56.526Z,25.92
2019-04-29T21:01:27.554Z,22.55
2019-04-29T21:03:57.063Z,23.32
2019-04-29T21:06:26.471Z,21.27
2019-04-29T21:08:55.655Z,18.67
2019-04-29T21:11:41.743Z,18.37
2019-04-29T21:14:15.796Z,20.08
2019-04-29T21:16:49.603Z,23.80
2019-04-29T21:19:18.902Z,18.92
2019-04-29T21:21:48.080Z,23.30
2019-04-29T21:24:18.571Z,18.02
2019-04-29T21:26:48.054Z,21.48
2019-04-29T21:29:19.319Z,16.60
2019-04-29T21:31:50.589Z,19.12
2019-04-29T21:34:20.938Z,18.12
2019-04-29T21:37:06.589Z,22.05
2019-04-29T21:39:41.158Z,18.07
2019-04-29T21:42:15.727Z,14.60
2019-04-29T21:44:45.003Z,18.40
2019-04-29T21:47:15.828Z,14.93
2019-04-29T21:49:45.733Z,15.45
2019-04-29T21:52:19.653Z,17.07
2019-04-29T21:54:49.300Z,15.58
2019-04-29T21:57:23.910Z,14.95
2019-04-29T21:59:48.709Z,14.90
2019-04-29T22:02:18.061Z,15.95
2019-04-29T22:04:47.371Z,17.90
2019-04-29T22:07:17.023Z,14.83
2019-04-29T22:09:50.006Z,18.37
2019-04-29T22:12:20.307Z,17.42
2019-04-29T22:14:52.503Z,18.17
2019-04-29T22:17:18.921Z,14.95
2019-04-29T22:19:48.105Z,16.82
2019-04-29T22:22:17.294Z,17.25
2019-04-29T22:24:46.604Z,17.65
2019-04-29T22:27:16.182Z,14.80
2019-04-29T22:29:47.538Z,17.62
2019-04-29T22:32:19.174Z,14.85
2019-04-29T22:34:49.500Z,17.15
2019-04-29T22:37:20.736Z,16.42
2019-04-29T22:39:49.820Z,18.52
2019-04-29T22:42:27.801Z,18.12
2019-04-29T22:45:00.658Z,16.57
2019-04-29T22:47:28.393Z,17.45
2019-04-29T22:49:58.669Z,17.35
2019-04-29T22:52:29.939Z,22.32
2019-04-29T22:55:01.612Z,18.05
2019-04-29T22:57:31.636Z,17.80
2019-04-29T23:00:01.065Z,18.50
2019-04-29T23:02:31.894Z,19.17
2019-04-29T23:05:01.098Z,21.40
2019-04-29T23:07:30.334Z,19.42
2019-04-29T23:09:59.495Z,21.25
2019-04-29T23:12:28.662Z,18.77
2019-04-29T23:14:58.592Z,18.50
2019-04-29T23:17:27.945Z,20.57
2019-04-29T23:19:58.722Z,19.75
2019-04-29T23:22:35.494Z,19.92
2019-04-29T23:25:21.825Z,20.80
2019-04-29T23:27:52.720Z,19.23
2019-04-29T23:30:22.387Z,19.40
2019-04-29T23:32:51.556Z,17.32
2019-04-29T23:35:20.713Z,18.25
2019-04-29T23:37:49.946Z,18.17
2019-04-29T23:40:19.114Z,18.77
2019-04-29T23:42:49.257Z,17.55
2019-04-29T23:45:21.053Z,17.17
2019-04-29T23:47:50.558Z,18.35
2019-04-29T23:50:20.236Z,16.87
2019-04-29T23:52:51.903Z,17.57
2019-04-29T23:55:24.982Z,16.90
2019-04-29T23:58:03.812Z,16.67
